MTN324 KSLC-KBIL
Flight info
| Callsign | MTN324 |
|---|---|
| Flight time | 0h 51m |
| Altitude | 31000 |
| Route | RUGGD3 HOLTR JEKUG YLSTN3 |
| Aircraft | A320/M-SDE3FGHIRWY/LB1 |
Departure
| Time | 2026-04-22 03:24 |
|---|---|
| Airport | Salt Lake City International Airport (KSLC) |
Arrival
| Time | 2026-04-22 04:15 |
|---|---|
| Airport | Billings Logan International Airport (KBIL) |
| Time | Latitude | Longitude | Altitude | Speed | Heading |
|---|---|---|---|---|---|
| 2026-04-22 02:59 | 40.78826 | -111.98832 | 4231 ft | 0 kts | 355° |
| 2026-04-22 03:13 | 40.78812 | -111.98831 | 4231 ft | 4 kts | 355° |
| 2026-04-22 03:13 | 40.78786 | -111.98827 | 4231 ft | 4 kts | 345° |
| 2026-04-22 03:13 | 40.78762 | -111.98813 | 4231 ft | 4 kts | 309° |
| 2026-04-22 03:13 | 40.78755 | -111.98790 | 4231 ft | 1 kts | 264° |
| 2026-04-22 03:14 | 40.78755 | -111.98784 | 4231 ft | 0 kts | 264° |
| 2026-04-22 03:16 | 40.78754 | -111.98806 | 4231 ft | 6 kts | 264° |
| 2026-04-22 03:16 | 40.78747 | -111.98903 | 4231 ft | 12 kts | 264° |
| 2026-04-22 03:16 | 40.78739 | -111.99014 | 4231 ft | 14 kts | 264° |
| 2026-04-22 03:17 | 40.78732 | -111.99107 | 4231 ft | 17 kts | 264° |
| 2026-04-22 03:17 | 40.78725 | -111.99254 | 4231 ft | 15 kts | 270° |
| 2026-04-22 03:17 | 40.78719 | -111.99380 | 4231 ft | 13 kts | 264° |
| 2026-04-22 03:17 | 40.78742 | -111.99468 | 4232 ft | 10 kts | 337° |
| 2026-04-22 03:18 | 40.78808 | -111.99482 | 4232 ft | 12 kts | 354° |
| 2026-04-22 03:18 | 40.78978 | -111.99503 | 4231 ft | 22 kts | 355° |
| 2026-04-22 03:18 | 40.79082 | -111.99515 | 4231 ft | 23 kts | 355° |
| 2026-04-22 03:18 | 40.79247 | -111.99533 | 4231 ft | 24 kts | 354° |
| 2026-04-22 03:19 | 40.79418 | -111.99554 | 4231 ft | 25 kts | 355° |
| 2026-04-22 03:19 | 40.79591 | -111.99574 | 4231 ft | 26 kts | 355° |
| 2026-04-22 03:19 | 40.79753 | -111.99593 | 4231 ft | 22 kts | 354° |
| 2026-04-22 03:19 | 40.79896 | -111.99610 | 4231 ft | 19 kts | 355° |
| 2026-04-22 03:20 | 40.80026 | -111.99625 | 4231 ft | 18 kts | 355° |
| 2026-04-22 03:20 | 40.80157 | -111.99640 | 4232 ft | 20 kts | 355° |
| 2026-04-22 03:20 | 40.80302 | -111.99657 | 4231 ft | 22 kts | 355° |
| 2026-04-22 03:20 | 40.80458 | -111.99674 | 4231 ft | 23 kts | 354° |
| 2026-04-22 03:21 | 40.80619 | -111.99694 | 4231 ft | 23 kts | 355° |
| 2026-04-22 03:21 | 40.80735 | -111.99708 | 4231 ft | 11 kts | 349° |
| 2026-04-22 03:21 | 40.80771 | -111.99772 | 4231 ft | 8 kts | 271° |
| 2026-04-22 03:21 | 40.80767 | -111.99852 | 4230 ft | 11 kts | 264° |
| 2026-04-22 03:22 | 40.80739 | -111.99926 | 4231 ft | 9 kts | 196° |
| 2026-04-22 03:22 | 40.80687 | -111.99923 | 4232 ft | 0 kts | 174° |
| 2026-04-22 03:23 | 40.80621 | -111.99914 | 4231 ft | 36 kts | 174° |
| 2026-04-22 03:23 | 40.80126 | -111.99855 | 4232 ft | 103 kts | 175° |
| 2026-04-22 03:23 | 40.79218 | -111.99747 | 4231 ft | 156 kts | 175° |
| 2026-04-22 03:23 | 40.78003 | -111.99608 | 4430 ft | 184 kts | 172° |
| 2026-04-22 03:24 | 40.76716 | -111.99503 | 5228 ft | 186 kts | 184° |
| 2026-04-22 03:24 | 40.75532 | -112.00144 | 5971 ft | 192 kts | 219° |
| 2026-04-22 03:24 | 40.74781 | -112.01737 | 6227 ft | 224 kts | 251° |
| 2026-04-22 03:24 | 40.74807 | -112.03933 | 6487 ft | 260 kts | 281° |
| 2026-04-22 03:25 | 40.75759 | -112.06057 | 7052 ft | 282 kts | 310° |
| 2026-04-22 03:25 | 40.77452 | -112.07489 | 7738 ft | 300 kts | 336° |
| 2026-04-22 03:25 | 40.79526 | -112.08061 | 8451 ft | 310 kts | 349° |
| 2026-04-22 03:25 | 40.81669 | -112.08406 | 9047 ft | 321 kts | 351° |
| 2026-04-22 03:26 | 40.83922 | -112.08740 | 9687 ft | 330 kts | 351° |
| 2026-04-22 03:26 | 40.86222 | -112.09080 | 10328 ft | 336 kts | 353° |
| 2026-04-22 03:26 | 40.88609 | -112.08865 | 10634 ft | 357 kts | 16° |
| 2026-04-22 03:26 | 40.90931 | -112.07476 | 10823 ft | 377 kts | 32° |
| 2026-04-22 03:27 | 40.93268 | -112.05698 | 11072 ft | 396 kts | 32° |
| 2026-04-22 03:27 | 40.95664 | -112.03849 | 11676 ft | 401 kts | 32° |
| 2026-04-22 03:27 | 40.98082 | -112.01981 | 12426 ft | 404 kts | 32° |
| 2026-04-22 03:27 | 41.00521 | -112.00110 | 13164 ft | 406 kts | 32° |
| 2026-04-22 03:28 | 41.02978 | -111.98235 | 13867 ft | 409 kts | 32° |
| 2026-04-22 03:28 | 41.05451 | -111.96359 | 14491 ft | 412 kts | 32° |
| 2026-04-22 03:28 | 41.07952 | -111.94464 | 15093 ft | 415 kts | 32° |
| 2026-04-22 03:28 | 41.10468 | -111.92558 | 15675 ft | 419 kts | 32° |
| 2026-04-22 03:29 | 41.12972 | -111.90656 | 16248 ft | 423 kts | 33° |
| 2026-04-22 03:29 | 41.15534 | -111.88705 | 16844 ft | 426 kts | 32° |
| 2026-04-22 03:29 | 41.18117 | -111.86734 | 17462 ft | 430 kts | 33° |
| 2026-04-22 03:29 | 41.20724 | -111.84741 | 18001 ft | 435 kts | 33° |
| 2026-04-22 03:30 | 41.23355 | -111.82727 | 18478 ft | 438 kts | 33° |
| 2026-04-22 03:30 | 41.26009 | -111.80694 | 18943 ft | 442 kts | 33° |
| 2026-04-22 03:30 | 41.28685 | -111.78642 | 19407 ft | 446 kts | 33° |
| 2026-04-22 03:30 | 41.31389 | -111.76564 | 19888 ft | 450 kts | 33° |
| 2026-04-22 03:31 | 41.34114 | -111.74470 | 20376 ft | 454 kts | 32° |
| 2026-04-22 03:31 | 41.36861 | -111.72360 | 20840 ft | 458 kts | 31° |
| 2026-04-22 03:31 | 41.39764 | -111.70531 | 21283 ft | 464 kts | 22° |
| 2026-04-22 03:31 | 41.42857 | -111.69219 | 21710 ft | 469 kts | 17° |
| 2026-04-22 03:32 | 41.46001 | -111.68006 | 22147 ft | 472 kts | 17° |
| 2026-04-22 03:32 | 41.49166 | -111.66773 | 22569 ft | 476 kts | 17° |
| 2026-04-22 03:32 | 41.52312 | -111.65537 | 22982 ft | 479 kts | 17° |
| 2026-04-22 03:32 | 41.55517 | -111.64274 | 23391 ft | 483 kts | 17° |
| 2026-04-22 03:33 | 41.58747 | -111.62999 | 23729 ft | 485 kts | 17° |
| 2026-04-22 03:33 | 41.61995 | -111.61717 | 24069 ft | 487 kts | 16° |
| 2026-04-22 03:33 | 41.65258 | -111.60431 | 24412 ft | 490 kts | 16° |
| 2026-04-22 03:33 | 41.68537 | -111.59138 | 24748 ft | 493 kts | 17° |
| 2026-04-22 03:34 | 41.71835 | -111.57835 | 25091 ft | 496 kts | 16° |
| 2026-04-22 03:34 | 41.75152 | -111.56521 | 25411 ft | 498 kts | 17° |
| 2026-04-22 03:34 | 41.78488 | -111.55208 | 25717 ft | 501 kts | 15° |
| 2026-04-22 03:34 | 41.81901 | -111.54236 | 26014 ft | 503 kts | 8° |
| 2026-04-22 03:35 | 41.85363 | -111.53463 | 26358 ft | 505 kts | 8° |
| 2026-04-22 03:35 | 41.88840 | -111.52683 | 26655 ft | 507 kts | 9° |
| 2026-04-22 03:35 | 41.92340 | -111.51892 | 26933 ft | 510 kts | 9° |
| 2026-04-22 03:35 | 41.95843 | -111.51092 | 27204 ft | 512 kts | 9° |
| 2026-04-22 03:36 | 41.99365 | -111.50290 | 27467 ft | 514 kts | 9° |
| 2026-04-22 03:36 | 42.02859 | -111.49504 | 27722 ft | 516 kts | 8° |
| 2026-04-22 03:36 | 42.06413 | -111.48710 | 27972 ft | 518 kts | 9° |
| 2026-04-22 03:36 | 42.09974 | -111.47908 | 28215 ft | 520 kts | 9° |
| 2026-04-22 03:37 | 42.13542 | -111.47097 | 28482 ft | 521 kts | 9° |
| 2026-04-22 03:37 | 42.17121 | -111.46276 | 28724 ft | 523 kts | 9° |
| 2026-04-22 03:37 | 42.20705 | -111.45452 | 29016 ft | 522 kts | 9° |
| 2026-04-22 03:37 | 42.24287 | -111.44633 | 29353 ft | 522 kts | 9° |
| 2026-04-22 03:38 | 42.27836 | -111.43621 | 29673 ft | 521 kts | 16° |
| 2026-04-22 03:38 | 42.31251 | -111.41990 | 29967 ft | 520 kts | 25° |
| 2026-04-22 03:38 | 42.34459 | -111.39762 | 30258 ft | 517 kts | 33° |
| 2026-04-22 03:38 | 42.37544 | -111.37274 | 30546 ft | 516 kts | 33° |
| 2026-04-22 03:39 | 42.40630 | -111.34792 | 30725 ft | 516 kts | 33° |
| 2026-04-22 03:39 | 42.43707 | -111.32322 | 30771 ft | 514 kts | 33° |
| 2026-04-22 03:39 | 42.49848 | -111.27386 | 30792 ft | 512 kts | 33° |
| 2026-04-22 03:40 | 42.55924 | -111.22468 | 30826 ft | 512 kts | 33° |
| 2026-04-22 03:40 | 42.62030 | -111.17512 | 30856 ft | 511 kts | 33° |
| 2026-04-22 03:41 | 42.68129 | -111.12565 | 30883 ft | 510 kts | 33° |
| 2026-04-22 03:41 | 42.74223 | -111.07609 | 30895 ft | 509 kts | 33° |
| 2026-04-22 03:42 | 42.80301 | -111.02649 | 30892 ft | 509 kts | 33° |
| 2026-04-22 03:42 | 42.86369 | -110.97688 | 30877 ft | 508 kts | 33° |
| 2026-04-22 03:43 | 42.92430 | -110.92720 | 30852 ft | 508 kts | 33° |
| 2026-04-22 03:43 | 42.98442 | -110.87782 | 30831 ft | 507 kts | 33° |
| 2026-04-22 03:44 | 43.04484 | -110.82808 | 30812 ft | 507 kts | 33° |
| 2026-04-22 03:44 | 43.10512 | -110.77827 | 30804 ft | 506 kts | 33° |
| 2026-04-22 03:45 | 43.16542 | -110.72839 | 30809 ft | 506 kts | 33° |
| 2026-04-22 03:45 | 43.22567 | -110.67846 | 30818 ft | 506 kts | 32° |
| 2026-04-22 03:46 | 43.28585 | -110.62850 | 30840 ft | 505 kts | 32° |
| 2026-04-22 03:46 | 43.34567 | -110.57858 | 30862 ft | 505 kts | 33° |
| 2026-04-22 03:47 | 43.40563 | -110.52844 | 30874 ft | 504 kts | 32° |
| 2026-04-22 03:47 | 43.46515 | -110.47867 | 30886 ft | 504 kts | 32° |
| 2026-04-22 03:48 | 43.52496 | -110.42853 | 30887 ft | 503 kts | 32° |
| 2026-04-22 03:48 | 43.58468 | -110.37834 | 30885 ft | 503 kts | 32° |
| 2026-04-22 03:49 | 43.64437 | -110.32810 | 30886 ft | 502 kts | 32° |
| 2026-04-22 03:49 | 43.70394 | -110.27772 | 30882 ft | 502 kts | 32° |
| 2026-04-22 03:50 | 43.76353 | -110.22726 | 30886 ft | 501 kts | 32° |
| 2026-04-22 03:50 | 43.82293 | -110.17681 | 30891 ft | 501 kts | 32° |
| 2026-04-22 03:51 | 43.88229 | -110.12630 | 30894 ft | 500 kts | 32° |
| 2026-04-22 03:51 | 43.94158 | -110.07581 | 30898 ft | 500 kts | 32° |
| 2026-04-22 03:52 | 44.00083 | -110.02516 | 30898 ft | 499 kts | 33° |
| 2026-04-22 03:52 | 44.05992 | -109.97438 | 30895 ft | 499 kts | 32° |
| 2026-04-22 03:53 | 44.11895 | -109.92374 | 30898 ft | 499 kts | 32° |
| 2026-04-22 03:53 | 44.17801 | -109.87296 | 30896 ft | 498 kts | 32° |
| 2026-04-22 03:54 | 44.23699 | -109.82217 | 30890 ft | 498 kts | 32° |
| 2026-04-22 03:54 | 44.29537 | -109.77150 | 30882 ft | 497 kts | 32° |
| 2026-04-22 03:55 | 44.35667 | -109.72649 | 30880 ft | 498 kts | 27° |
| 2026-04-22 03:55 | 44.41852 | -109.68295 | 30876 ft | 497 kts | 27° |
| 2026-04-22 03:56 | 44.48036 | -109.63931 | 30869 ft | 498 kts | 27° |
| 2026-04-22 03:56 | 44.54216 | -109.59551 | 30856 ft | 498 kts | 27° |
| 2026-04-22 03:57 | 44.60386 | -109.55166 | 30839 ft | 497 kts | 27° |
| 2026-04-22 03:57 | 44.66564 | -109.50771 | 30555 ft | 498 kts | 26° |
| 2026-04-22 03:58 | 44.69656 | -109.48572 | 30304 ft | 497 kts | 26° |
| 2026-04-22 03:58 | 44.72736 | -109.46377 | 30064 ft | 497 kts | 26° |
| 2026-04-22 03:58 | 44.75823 | -109.44174 | 29808 ft | 497 kts | 27° |
| 2026-04-22 03:58 | 44.78903 | -109.41970 | 28980 ft | 497 kts | 27° |
| 2026-04-22 03:59 | 44.82016 | -109.39738 | 27541 ft | 506 kts | 27° |
| 2026-04-22 03:59 | 44.85160 | -109.37479 | 26495 ft | 506 kts | 27° |
| 2026-04-22 03:59 | 44.88229 | -109.35272 | 25797 ft | 499 kts | 27° |
| 2026-04-22 03:59 | 44.91314 | -109.33054 | 24967 ft | 496 kts | 27° |
| 2026-04-22 04:00 | 44.94374 | -109.30852 | 24167 ft | 492 kts | 27° |
| 2026-04-22 04:00 | 44.97420 | -109.28659 | 23380 ft | 489 kts | 27° |
| 2026-04-22 04:00 | 45.00443 | -109.26478 | 22528 ft | 486 kts | 27° |
| 2026-04-22 04:00 | 45.03434 | -109.24315 | 21806 ft | 480 kts | 27° |
| 2026-04-22 04:01 | 45.06394 | -109.22168 | 21094 ft | 476 kts | 28° |
| 2026-04-22 04:01 | 45.09329 | -109.20035 | 20405 ft | 471 kts | 28° |
| 2026-04-22 04:01 | 45.12227 | -109.17933 | 19821 ft | 465 kts | 28° |
| 2026-04-22 04:01 | 45.15095 | -109.15855 | 19232 ft | 460 kts | 28° |
| 2026-04-22 04:02 | 45.17931 | -109.13799 | 18663 ft | 455 kts | 28° |
| 2026-04-22 04:02 | 45.20733 | -109.11761 | 18129 ft | 451 kts | 29° |
| 2026-04-22 04:02 | 45.23462 | -109.09769 | 17760 ft | 442 kts | 29° |
| 2026-04-22 04:02 | 45.26168 | -109.07790 | 17312 ft | 435 kts | 29° |
| 2026-04-22 04:03 | 45.28845 | -109.05827 | 16800 ft | 430 kts | 29° |
| 2026-04-22 04:03 | 45.31491 | -109.03885 | 16274 ft | 426 kts | 29° |
| 2026-04-22 04:03 | 45.34114 | -109.01958 | 15785 ft | 422 kts | 28° |
| 2026-04-22 04:03 | 45.36683 | -109.00070 | 15624 ft | 408 kts | 28° |
| 2026-04-22 04:04 | 45.39125 | -108.98282 | 15489 ft | 382 kts | 28° |
| 2026-04-22 04:04 | 45.41416 | -108.96604 | 15365 ft | 360 kts | 28° |
| 2026-04-22 04:04 | 45.43605 | -108.94997 | 15241 ft | 349 kts | 28° |
| 2026-04-22 04:04 | 45.45727 | -108.93433 | 15022 ft | 340 kts | 28° |
| 2026-04-22 04:05 | 45.47893 | -108.92141 | 14772 ft | 335 kts | 16° |
| 2026-04-22 04:05 | 45.50176 | -108.91517 | 14521 ft | 336 kts | 4° |
| 2026-04-22 04:05 | 45.52515 | -108.91552 | 14182 ft | 334 kts | 356° |
| 2026-04-22 04:05 | 45.54785 | -108.91703 | 13762 ft | 329 kts | 357° |
| 2026-04-22 04:06 | 45.57063 | -108.91837 | 13121 ft | 326 kts | 357° |
| 2026-04-22 04:06 | 45.59321 | -108.91957 | 12499 ft | 323 kts | 358° |
| 2026-04-22 04:06 | 45.61575 | -108.92076 | 12130 ft | 322 kts | 357° |
| 2026-04-22 04:06 | 45.63795 | -108.92194 | 11649 ft | 318 kts | 357° |
| 2026-04-22 04:07 | 45.66006 | -108.92312 | 11023 ft | 319 kts | 357° |
| 2026-04-22 04:07 | 45.68204 | -108.92431 | 10523 ft | 314 kts | 357° |
| 2026-04-22 04:07 | 45.70385 | -108.92551 | 10040 ft | 313 kts | 357° |
| 2026-04-22 04:07 | 45.72549 | -108.92671 | 9569 ft | 310 kts | 357° |
| 2026-04-22 04:08 | 45.74705 | -108.92791 | 9063 ft | 309 kts | 357° |
| 2026-04-22 04:08 | 45.76850 | -108.92912 | 8595 ft | 308 kts | 357° |
| 2026-04-22 04:08 | 45.78940 | -108.93032 | 8301 ft | 296 kts | 357° |
| 2026-04-22 04:08 | 45.80912 | -108.93146 | 8233 ft | 273 kts | 358° |
| 2026-04-22 04:09 | 45.82768 | -108.93230 | 8139 ft | 263 kts | 2° |
| 2026-04-22 04:09 | 45.84504 | -108.92604 | 8017 ft | 257 kts | 30° |
| 2026-04-22 04:09 | 45.85854 | -108.90975 | 7825 ft | 253 kts | 58° |
| 2026-04-22 04:09 | 45.86559 | -108.88724 | 7566 ft | 246 kts | 78° |
| 2026-04-22 04:10 | 45.87005 | -108.86352 | 7312 ft | 245 kts | 78° |
| 2026-04-22 04:10 | 45.87451 | -108.84015 | 7065 ft | 241 kts | 78° |
| 2026-04-22 04:10 | 45.87865 | -108.81706 | 6821 ft | 235 kts | 85° |
| 2026-04-22 04:10 | 45.87828 | -108.79419 | 6587 ft | 226 kts | 107° |
| 2026-04-22 04:11 | 45.87336 | -108.77320 | 6380 ft | 219 kts | 114° |
| 2026-04-22 04:11 | 45.86782 | -108.75355 | 6253 ft | 209 kts | 115° |
| 2026-04-22 04:11 | 45.86263 | -108.73496 | 6112 ft | 193 kts | 114° |
| 2026-04-22 04:11 | 45.85789 | -108.71783 | 5900 ft | 177 kts | 114° |
| 2026-04-22 04:12 | 45.85350 | -108.70195 | 5667 ft | 165 kts | 114° |
| 2026-04-22 04:12 | 45.84945 | -108.68728 | 5503 ft | 152 kts | 114° |
| 2026-04-22 04:12 | 45.84559 | -108.67336 | 5307 ft | 148 kts | 114° |
| 2026-04-22 04:12 | 45.84182 | -108.65974 | 5118 ft | 146 kts | 114° |
| 2026-04-22 04:13 | 45.83807 | -108.64621 | 4934 ft | 145 kts | 114° |
| 2026-04-22 04:13 | 45.83435 | -108.63281 | 4754 ft | 144 kts | 114° |
| 2026-04-22 04:13 | 45.83065 | -108.61944 | 4580 ft | 145 kts | 113° |
| 2026-04-22 04:13 | 45.82693 | -108.60605 | 4378 ft | 145 kts | 112° |
| 2026-04-22 04:14 | 45.82318 | -108.59252 | 4199 ft | 146 kts | 111° |
| 2026-04-22 04:14 | 45.81945 | -108.57907 | 4002 ft | 145 kts | 111° |
| 2026-04-22 04:14 | 45.81572 | -108.56566 | 3808 ft | 145 kts | 110° |
| 2026-04-22 04:14 | 45.81200 | -108.55228 | 3612 ft | 144 kts | 111° |
| 2026-04-22 04:15 | 45.80856 | -108.53988 | 3558 ft | 119 kts | 112° |
| 2026-04-22 04:15 | 45.80643 | -108.53224 | 3544 ft | 55 kts | 112° |
| 2026-04-22 04:15 | 45.80563 | -108.52935 | 3535 ft | 19 kts | 111° |
| 2026-04-22 04:15 | 45.80472 | -108.52898 | 3531 ft | 12 kts | 188° |
| 2026-04-22 04:16 | 45.80411 | -108.52810 | 3527 ft | 15 kts | 110° |
| 2026-04-22 04:16 | 45.80340 | -108.52821 | 3526 ft | 9 kts | 292° |
| 2026-04-22 04:16 | 45.80360 | -108.52880 | 3528 ft | 5 kts | 298° |
| 2026-04-22 04:17 | 45.80420 | -108.52951 | 3530 ft | 17 kts | 331° |
| 2026-04-22 04:17 | 45.80475 | -108.53067 | 3534 ft | 12 kts | 279° |
| 2026-04-22 04:17 | 45.80477 | -108.53208 | 3537 ft | 18 kts | 270° |
| 2026-04-22 04:17 | 45.80495 | -108.53374 | 3541 ft | 15 kts | 289° |
| 2026-04-22 04:18 | 45.80526 | -108.53491 | 3541 ft | 10 kts | 292° |
| 2026-04-22 04:18 | 45.80539 | -108.53570 | 3543 ft | 6 kts | 262° |
| 2026-04-22 04:18 | 45.80522 | -108.53627 | 3543 ft | 5 kts | 237° |
| 2026-04-22 04:18 | 45.80498 | -108.53639 | 3544 ft | 3 kts | 191° |
| 2026-04-22 04:19 | 45.80476 | -108.53643 | 3547 ft | 0 kts | 184° |